Time;durP1;ratioP1;P1;durP2;ratioP2;P2;SDS_P1;SDS_P2;PMS_P1;PMS_P2;Temp;Humidity;BMP_temperature;BMP_pressure;BME280_temperature;BME280_humidity;BME280_pressure;Samples;Min_cycle;Max_cycle;Signal;HPM_P1;HPM_P2
2021/01/26 00:04:06;;;;;;;100.35;31.75;;;;;;;;;;5047128;28;20080;-92
2021/01/26 00:06:56;;;;;;;96.60;32.13;;;;;;;;;;5053725;28;20045;-91
2021/01/26 00:09:23;;;;;;;102.68;32.75;;;;;;;;;;5057113;28;20037;-92
2021/01/26 00:11:49;;;;;;;105.78;31.20;;;;;;;;;;5054059;28;20046;-91
2021/01/26 00:14:16;;;;;;;101.40;32.30;;;;;;;;;;5057664;28;20033;-91
2021/01/26 00:16:43;;;;;;;106.85;32.70;;;;;;;;;;5039758;28;20056;-92
2021/01/26 00:19:09;;;;;;;109.95;32.97;;;;;;;;;;5024042;28;20128;-93
2021/01/26 00:32:16;;;;;;;98.60;34.28;;;;;;;;;;5016050;28;20092;-93
2021/01/26 00:34:43;;;;;;;101.53;32.83;;;;;;;;;;5022392;28;20096;-93
2021/01/26 00:37:09;;;;;;;110.20;34.72;;;;;;;;;;5035385;28;20057;-93
2021/01/26 00:43:24;;;;;;;107.30;32.38;;;;;;;;;;5021908;28;20104;-93
2021/01/26 00:45:51;;;;;;;111.00;34.47;;;;;;;;;;5034443;28;20061;-93
2021/01/26 00:48:17;;;;;;;96.25;32.00;;;;;;;;;;5034382;28;20054;-93
2021/01/26 00:50:45;;;;;;;100.18;32.38;;;;;;;;;;5035551;28;20045;-93
2021/01/26 00:53:11;;;;;;;90.95;33.17;;;;;;;;;;5034347;28;20430;-92
2021/01/26 00:55:38;;;;;;;98.28;31.85;;;;;;;;;;5034303;28;20110;-93
2021/01/26 00:58:05;;;;;;;104.63;34.00;;;;;;;;;;5034310;28;20050;-93
2021/01/26 01:00:41;;;;;;;98.25;32.70;;;;;;;;;;5034966;28;20402;-92
2021/01/26 01:03:07;;;;;;;;;;;;;;;;;;5034390;28;20072;-92
2021/01/26 01:06:03;;;;;;;113.05;33.05;;;;;;;;;;5035152;28;19920;-92
2021/01/26 01:08:30;;;;;;;;;;;;;;;;;;5034506;28;20053;-92
2021/01/26 01:10:57;;;;;;;107.25;31.92;;;;;;;;;;5028008;28;19921;-93
2021/01/26 01:13:24;;;;;;;99.13;33.00;;;;;;;;;;5034336;28;20103;-94
2021/01/26 01:15:52;;;;;;;103.60;32.83;;;;;;;;;;5034438;28;20042;-93
2021/01/26 01:18:18;;;;;;;109.30;34.35;;;;;;;;;;5034239;28;20042;-94
2021/01/26 01:20:45;;;;;;;113.68;34.28;;;;;;;;;;5034105;28;20054;-94
2021/01/26 01:23:12;;;;;;;102.00;31.77;;;;;;;;;;5034353;28;20045;-94
2021/01/26 01:25:39;;;;;;;100.53;31.67;;;;;;;;;;5035593;28;20107;-94
2021/01/26 01:28:43;;;;;;;120.72;34.63;;;;;;;;;;5034479;28;20061;-93
2021/01/26 01:31:10;;;;;;;101.18;32.72;;;;;;;;;;5034060;28;20490;-93
2021/01/26 01:33:36;;;;;;;105.18;32.10;;;;;;;;;;5033141;28;20050;-93
2021/01/26 01:36:03;;;;;;;103.65;33.28;;;;;;;;;;5033670;28;20041;-92
2021/01/26 01:38:30;;;;;;;99.50;32.80;;;;;;;;;;5033416;28;20104;-93
2021/01/26 01:41:03;;;;;;;104.43;33.03;;;;;;;;;;5033779;28;20051;-92
2021/01/26 01:43:30;;;;;;;101.53;33.05;;;;;;;;;;5033202;28;20050;-93
2021/01/26 01:45:57;;;;;;;102.80;33.22;;;;;;;;;;5031736;28;20474;-93
2021/01/26 01:48:26;;;;;;;107.57;34.22;;;;;;;;;;5022552;28;20053;-92
2021/01/26 01:51:03;;;;;;;103.10;32.53;;;;;;;;;;5030402;28;20049;-92
2021/01/26 01:53:38;;;;;;;111.00;36.80;;;;;;;;;;5044669;28;20075;-93
2021/01/26 01:56:07;;;;;;;103.57;32.22;;;;;;;;;;5036589;28;20741;-93
2021/01/26 01:58:37;;;;;;;105.97;33.47;;;;;;;;;;5036764;28;20041;-93
2021/01/26 02:01:06;;;;;;;111.10;34.75;;;;;;;;;;5037013;28;20462;-93
2021/01/26 02:03:42;;;;;;;106.57;34.83;;;;;;;;;;5037029;28;20240;-93
2021/01/26 02:06:09;;;;;;;103.65;35.08;;;;;;;;;;5038001;28;20181;-93
2021/01/26 02:08:39;;;;;;;105.45;34.15;;;;;;;;;;5037231;28;20108;-93
2021/01/26 02:11:35;;;;;;;126.60;35.45;;;;;;;;;;5036906;28;20403;-93
2021/01/26 02:14:01;;;;;;;104.60;34.22;;;;;;;;;;5036841;28;20041;-93
2021/01/26 02:16:44;;;;;;;117.22;36.65;;;;;;;;;;5036662;28;20050;-92
2021/01/26 02:19:30;;;;;;;104.75;35.17;;;;;;;;;;5036915;28;20057;-94
2021/01/26 02:22:20;;;;;;;111.45;34.30;;;;;;;;;;5018063;28;20046;-92
2021/01/26 02:25:12;;;;;;;112.53;35.72;;;;;;;;;;5016631;28;20116;-92
2021/01/26 02:27:54;;;;;;;115.32;38.17;;;;;;;;;;5035496;28;20080;-93
2021/01/26 02:30:21;;;;;;;114.35;35.65;;;;;;;;;;5035997;28;20430;-93
2021/01/26 02:32:54;;;;;;;121.95;39.70;;;;;;;;;;5036098;28;20084;-93
2021/01/26 02:35:33;;;;;;;111.90;37.50;;;;;;;;;;5037590;28;20053;-93
2021/01/26 02:41:06;;;;;;;126.07;40.30;;;;;;;;;;5037644;28;20095;-92
2021/01/26 02:43:36;;;;;;;127.57;41.38;;;;;;;;;;5036871;28;20053;-93
2021/01/26 02:46:11;;;;;;;124.30;42.40;;;;;;;;;;5036545;28;20053;-93
2021/01/26 02:48:44;;;;;;;120.55;41.47;;;;;;;;;;5037131;28;20060;-93
2021/01/26 02:51:19;;;;;;;117.65;39.22;;;;;;;;;;5036692;28;20465;-93
2021/01/26 02:53:59;;;;;;;129.02;41.28;;;;;;;;;;5036222;28;20072;-93
2021/01/26 02:56:33;;;;;;;128.23;42.33;;;;;;;;;;5033508;28;20077;-92
2021/01/26 02:59:19;;;;;;;146.55;43.45;;;;;;;;;;5029554;28;20041;-93
2021/01/26 03:01:55;;;;;;;128.20;41.50;;;;;;;;;;5019600;28;20046;-92
2021/01/26 03:04:25;;;;;;;126.32;42.53;;;;;;;;;;5036335;28;20049;-93
2021/01/26 03:06:53;;;;;;;119.90;40.85;;;;;;;;;;5019377;28;20054;-93
2021/01/26 03:09:26;;;;;;;132.77;44.28;;;;;;;;;;5015793;28;20560;-92
2021/01/26 03:11:58;;;;;;;131.45;42.38;;;;;;;;;;5015660;28;20548;-93
2021/01/26 03:14:43;;;;;;;120.70;42.38;;;;;;;;;;5027194;28;20104;-92
2021/01/26 03:17:14;;;;;;;120.15;42.40;;;;;;;;;;5035696;28;20494;-93
2021/01/26 03:19:45;;;;;;;126.93;42.65;;;;;;;;;;5035699;28;20056;-92
2021/01/26 03:22:14;;;;;;;138.05;43.22;;;;;;;;;;5037416;28;20068;-93
2021/01/26 03:24:45;;;;;;;126.28;42.47;;;;;;;;;;5037636;28;20469;-93
2021/01/26 03:27:20;;;;;;;130.60;45.17;;;;;;;;;;5038271;28;20053;-93
2021/01/26 03:29:48;;;;;;;120.50;43.10;;;;;;;;;;5029579;28;20045;-92
2021/01/26 03:32:17;;;;;;;137.57;42.70;;;;;;;;;;5035254;28;20139;-92
2021/01/26 03:34:44;;;;;;;132.10;43.35;;;;;;;;;;5034603;28;20065;-92
2021/01/26 03:37:11;;;;;;;140.13;45.33;;;;;;;;;;5033076;28;20064;-92
2021/01/26 03:39:38;;;;;;;125.90;43.58;;;;;;;;;;5035177;28;20049;-92
2021/01/26 03:42:41;;;;;;;129.90;43.60;;;;;;;;;;5034902;28;20620;-92
2021/01/26 03:45:09;;;;;;;136.65;45.20;;;;;;;;;;5035133;28;20108;-92
2021/01/26 03:47:55;;;;;;;133.10;43.75;;;;;;;;;;5026418;28;20073;-92
2021/01/26 03:50:22;;;;;;;;;;;;;;;;;;5035247;28;20092;-92
2021/01/26 03:53:07;;;;;;;134.93;43.83;;;;;;;;;;5034551;28;19921;-91
2021/01/26 03:55:47;;;;;;;133.50;44.25;;;;;;;;;;5034661;28;20065;-91
2021/01/26 04:01:37;;;;;;;131.18;42.92;;;;;;;;;;5032372;28;20050;-92
2021/01/26 04:04:18;;;;;;;137.85;45.58;;;;;;;;;;5022351;28;20046;-91
2021/01/26 04:06:59;;;;;;;143.73;46.28;;;;;;;;;;5035923;28;20053;-90
2021/01/26 04:09:28;;;;;;;149.70;47.22;;;;;;;;;;5036148;28;20107;-91
2021/01/26 04:12:04;;;;;;;143.75;50.08;;;;;;;;;;5035499;28;20080;-91
2021/01/26 04:14:32;;;;;;;137.77;47.28;;;;;;;;;;5038920;28;20466;-91
2021/01/26 04:17:07;;;;;;;154.10;49.08;;;;;;;;;;5035590;28;20095;-91
2021/01/26 04:19:36;;;;;;;147.27;46.55;;;;;;;;;;5034605;28;20053;-91
2021/01/26 04:22:04;;;;;;;138.20;48.88;;;;;;;;;;5031453;28;20100;-90
2021/01/26 04:24:32;;;;;;;141.35;49.72;;;;;;;;;;5034370;28;20065;-91
2021/01/26 04:27:11;;;;;;;148.30;48.85;;;;;;;;;;5042572;28;20041;-93
2021/01/26 04:29:37;;;;;;;139.55;49.25;;;;;;;;;;5039325;28;20042;-91
2021/01/26 04:32:05;;;;;;;149.93;50.55;;;;;;;;;;5044341;28;20038;-91
2021/01/26 04:34:32;;;;;;;140.82;47.88;;;;;;;;;;5042377;28;20056;-90
2021/01/26 04:36:59;;;;;;;157.35;50.35;;;;;;;;;;5040520;28;20423;-91
2021/01/26 04:39:26;;;;;;;144.30;48.38;;;;;;;;;;5037696;28;20054;-90
2021/01/26 04:42:03;;;;;;;160.85;50.60;;;;;;;;;;5037290;28;20400;-91
2021/01/26 04:44:36;;;;;;;143.80;48.40;;;;;;;;;;5034340;28;20406;-91
2021/01/26 04:47:03;;;;;;;138.65;48.08;;;;;;;;;;5034487;28;20050;-90
2021/01/26 04:49:43;;;;;;;152.38;48.25;;;;;;;;;;5034255;28;20049;-90
2021/01/26 04:52:19;;;;;;;150.30;49.17;;;;;;;;;;5034674;28;20049;-90
2021/01/26 04:55:01;;;;;;;149.80;49.40;;;;;;;;;;5034749;28;20044;-91
2021/01/26 04:57:33;;;;;;;141.63;47.45;;;;;;;;;;5034357;28;20041;-91
2021/01/26 05:03:05;;;;;;;142.15;47.08;;;;;;;;;;5035606;28;20072;-91
2021/01/26 05:05:36;;;;;;;155.77;49.17;;;;;;;;;;5035238;28;20604;-91
2021/01/26 05:08:07;;;;;;;144.65;48.60;;;;;;;;;;5026620;28;20046;-92
2021/01/26 05:10:38;;;;;;;153.65;51.67;;;;;;;;;;5014786;28;20053;-92
2021/01/26 05:13:14;;;;;;;143.65;48.95;;;;;;;;;;5015950;28;20507;-92
2021/01/26 05:15:50;;;;;;;145.70;49.05;;;;;;;;;;5014605;28;20482;-91
2021/01/26 05:18:24;;;;;;;162.75;49.88;;;;;;;;;;5030044;28;20041;-91
2021/01/26 05:21:13;;;;;;;147.98;49.25;;;;;;;;;;5029915;28;20103;-91
2021/01/26 05:23:43;;;;;;;137.25;48.22;;;;;;;;;;5037381;28;20057;-91
2021/01/26 05:26:12;;;;;;;146.93;48.35;;;;;;;;;;5039898;28;20063;-91
2021/01/26 05:28:43;;;;;;;153.32;50.22;;;;;;;;;;5036226;28;20061;-92
2021/01/26 05:31:14;;;;;;;145.15;49.72;;;;;;;;;;5041841;28;20123;-92
2021/01/26 05:33:47;;;;;;;155.13;50.70;;;;;;;;;;5040327;28;20049;-92
2021/01/26 05:36:14;;;;;;;157.93;49.72;;;;;;;;;;5036347;28;20049;-91
2021/01/26 05:38:41;;;;;;;157.98;50.97;;;;;;;;;;5039166;28;20076;-92
2021/01/26 05:41:08;;;;;;;140.68;48.33;;;;;;;;;;5057451;28;20052;-92
2021/01/26 05:43:42;;;;;;;146.48;49.25;;;;;;;;;;5052089;28;20576;-92
2021/01/26 05:46:10;;;;;;;161.38;49.15;;;;;;;;;;5039304;28;20091;-92
2021/01/26 05:48:47;;;;;;;143.18;49.08;;;;;;;;;;5037858;28;20085;-92
2021/01/26 05:51:20;;;;;;;153.70;51.90;;;;;;;;;;5037377;28;20053;-91
2021/01/26 05:53:51;;;;;;;149.50;48.30;;;;;;;;;;5028704;28;20052;-91
2021/01/26 05:56:34;;;;;;;147.40;49.05;;;;;;;;;;5036760;28;20068;-91
2021/01/26 05:59:18;;;;;;;154.27;49.38;;;;;;;;;;5017908;28;20050;-91
2021/01/26 06:01:45;;;;;;;146.00;48.28;;;;;;;;;;5033920;28;20045;-91
2021/01/26 06:04:13;;;;;;;158.25;50.33;;;;;;;;;;5037696;28;20058;-91
2021/01/26 06:06:57;;;;;;;143.30;48.55;;;;;;;;;;5036250;28;20080;-91
2021/01/26 06:09:29;;;;;;;161.75;47.63;;;;;;;;;;5036167;28;20080;-90
2021/01/26 06:12:13;;;;;;;156.95;50.92;;;;;;;;;;5034589;28;20042;-90
2021/01/26 06:14:43;;;;;;;171.07;49.85;;;;;;;;;;5037135;28;20743;-90
2021/01/26 06:17:23;;;;;;;151.57;51.47;;;;;;;;;;5037847;28;20615;-90
2021/01/26 06:20:13;;;;;;;162.63;50.05;;;;;;;;;;5016282;28;20060;-90
2021/01/26 06:22:42;;;;;;;148.52;49.65;;;;;;;;;;5018829;28;20054;-90
2021/01/26 06:25:15;;;;;;;160.70;52.08;;;;;;;;;;5033281;28;20125;-90
2021/01/26 06:27:46;;;;;;;169.90;49.83;;;;;;;;;;5035163;28;20108;-89
2021/01/26 06:30:22;;;;;;;153.52;52.15;;;;;;;;;;5035922;28;20095;-90
2021/01/26 06:33:07;;;;;;;163.68;53.13;;;;;;;;;;5032178;28;20042;-89
2021/01/26 06:35:41;;;;;;;155.43;50.72;;;;;;;;;;5034055;28;20052;-89
2021/01/26 06:38:15;;;;;;;165.73;51.80;;;;;;;;;;5035550;28;20045;-89
2021/01/26 06:40:44;;;;;;;157.52;50.90;;;;;;;;;;5035484;28;20050;-88
2021/01/26 06:43:31;;;;;;;161.93;50.85;;;;;;;;;;5034985;28;20060;-88
2021/01/26 06:46:03;;;;;;;162.52;51.53;;;;;;;;;;5025589;28;20474;-89
2021/01/26 06:48:35;;;;;;;172.18;50.25;;;;;;;;;;5034100;28;20057;-88
2021/01/26 06:51:28;;;;;;;169.43;52.00;;;;;;;;;;5025588;28;20256;-89
2021/01/26 06:54:14;;;;;;;157.77;50.55;;;;;;;;;;5020355;28;20080;-90
2021/01/26 06:57:01;;;;;;;164.02;53.15;;;;;;;;;;5035249;28;20053;-88
2021/01/26 06:59:33;;;;;;;155.98;49.05;;;;;;;;;;5035878;28;20041;-87
2021/01/26 07:02:22;;;;;;;161.18;51.22;;;;;;;;;;5034469;28;20084;-87
2021/01/26 07:04:49;;;;;;;166.48;50.60;;;;;;;;;;5031227;28;20049;-87
2021/01/26 07:07:18;;;;;;;176.43;53.90;;;;;;;;;;5028372;28;20053;-88
2021/01/26 07:10:08;;;;;;;152.30;48.90;;;;;;;;;;5034968;28;20049;-87
2021/01/26 07:12:58;;;;;;;166.68;52.03;;;;;;;;;;5023471;28;20041;-88
2021/01/26 07:15:45;;;;;;;153.73;51.95;;;;;;;;;;5035583;28;20069;-89
2021/01/26 07:18:27;;;;;;;184.88;54.55;;;;;;;;;;5029432;28;20467;-90
2021/01/26 07:21:08;;;;;;;167.40;51.35;;;;;;;;;;5027506;28;20072;-90
2021/01/26 07:23:55;;;;;;;177.00;53.28;;;;;;;;;;5035140;28;20087;-90
2021/01/26 07:26:36;;;;;;;159.23;52.15;;;;;;;;;;5027524;28;20140;-88
2021/01/26 07:29:21;;;;;;;163.32;51.17;;;;;;;;;;5035433;28;20510;-90
2021/01/26 07:31:55;;;;;;;;;;;;;;;;;;5031380;28;20045;-90
2021/01/26 07:34:32;;;;;;;141.73;47.55;;;;;;;;;;5038885;28;19921;-88
2021/01/26 07:37:07;;;;;;;156.43;51.00;;;;;;;;;;5032084;28;20045;-90
2021/01/26 07:40:09;;;;;;;158.82;49.20;;;;;;;;;;5034414;28;20049;-89
2021/01/26 07:42:39;;;;;;;148.52;49.75;;;;;;;;;;4982954;28;20070;-89
2021/01/26 07:45:25;;;;;;;157.13;52.72;;;;;;;;;;5030849;28;20068;-87
2021/01/26 07:48:19;;;;;;;172.45;52.20;;;;;;;;;;5025394;28;20063;-88
2021/01/26 07:50:54;;;;;;;154.00;50.83;;;;;;;;;;5035969;28;20046;-89
2021/01/26 08:03:27;;;;;;;162.68;52.00;;;;;;;;;;5022025;28;20099;-87
2021/01/26 08:06:23;;;;;;;177.23;54.25;;;;;;;;;;5034249;28;20045;-87
2021/01/26 08:08:56;;;;;;;155.38;50.58;;;;;;;;;;5033887;28;20092;-87
2021/01/26 08:11:25;;;;;;;172.02;52.22;;;;;;;;;;5033605;28;20080;-87
2021/01/26 08:13:54;;;;;;;155.98;52.13;;;;;;;;;;5033363;28;20773;-87
2021/01/26 08:16:38;;;;;;;181.27;53.67;;;;;;;;;;5033085;28;20183;-87
2021/01/26 08:19:17;;;;;;;166.85;54.88;;;;;;;;;;5033369;28;20057;-87
2021/01/26 08:21:45;;;;;;;174.63;54.10;;;;;;;;;;5033231;28;20457;-88
2021/01/26 08:24:27;;;;;;;170.57;53.85;;;;;;;;;;5033402;28;20103;-88
2021/01/26 08:26:55;;;;;;;179.98;54.33;;;;;;;;;;5016505;28;20045;-88
2021/01/26 08:29:46;;;;;;;172.55;53.72;;;;;;;;;;5030036;28;20520;-88
2021/01/26 08:32:23;;;;;;;186.38;55.50;;;;;;;;;;5033188;28;20561;-88
2021/01/26 08:35:10;;;;;;;183.52;55.97;;;;;;;;;;5033418;28;20061;-88
2021/01/26 08:37:40;;;;;;;167.18;59.42;;;;;;;;;;5033139;28;20399;-88
2021/01/26 08:40:11;;;;;;;192.45;58.13;;;;;;;;;;5033396;28;20045;-88
2021/01/26 08:42:44;;;;;;;177.88;57.95;;;;;;;;;;5033099;28;20095;-88
2021/01/26 08:45:17;;;;;;;164.40;54.55;;;;;;;;;;5034653;28;20051;-89
2021/01/26 08:47:59;;;;;;;161.98;54.22;;;;;;;;;;5033075;28;20091;-88
2021/01/26 08:50:28;;;;;;;170.20;55.58;;;;;;;;;;5034013;28;20137;-88
2021/01/26 08:53:13;;;;;;;162.13;54.30;;;;;;;;;;5033966;28;20068;-89
2021/01/26 08:55:46;;;;;;;160.52;53.70;;;;;;;;;;5032057;28;20852;-88
2021/01/26 08:58:34;;;;;;;157.30;54.50;;;;;;;;;;5032568;28;20045;-89
2021/01/26 09:01:01;;;;;;;174.45;55.42;;;;;;;;;;5030347;28;20045;-88
2021/01/26 09:03:46;;;;;;;168.65;54.10;;;;;;;;;;5032094;28;20060;-88
2021/01/26 09:06:14;;;;;;;165.10;53.17;;;;;;;;;;5032182;28;20049;-86
2021/01/26 09:08:41;;;;;;;178.85;54.10;;;;;;;;;;5032127;28;20397;-86
2021/01/26 09:11:28;;;;;;;184.48;55.90;;;;;;;;;;5031485;28;20084;-87
2021/01/26 09:14:02;;;;;;;199.50;57.85;;;;;;;;;;5025019;28;20045;-86
2021/01/26 09:16:29;;;;;;;188.70;56.75;;;;;;;;;;5032439;28;20057;-86
2021/01/26 09:19:25;;;;;;;180.07;54.72;;;;;;;;;;5025030;28;20046;-90
2021/01/26 09:21:52;;;;;;;181.35;55.38;;;;;;;;;;5011308;28;20092;-87
2021/01/26 09:24:24;;;;;;;174.63;56.22;;;;;;;;;;5031570;28;20053;-86
2021/01/26 09:26:51;;;;;;;190.13;57.17;;;;;;;;;;5032186;28;20100;-87
2021/01/26 09:29:29;;;;;;;201.35;59.72;;;;;;;;;;5032127;28;20055;-87
2021/01/26 09:31:56;;;;;;;197.23;58.78;;;;;;;;;;5031802;28;20169;-86
2021/01/26 09:34:28;;;;;;;191.75;58.80;;;;;;;;;;5031828;28;20457;-86
2021/01/26 09:37:10;;;;;;;198.13;60.88;;;;;;;;;;5031612;28;20045;-87
2021/01/26 09:39:36;;;;;;;185.80;59.58;;;;;;;;;;5033197;28;20053;-87
2021/01/26 09:42:29;;;;;;;199.35;60.67;;;;;;;;;;5028933;28;20495;-86
2021/01/26 09:45:01;;;;;;;175.57;59.33;;;;;;;;;;5025196;28;20051;-89
2021/01/26 09:47:37;;;;;;;193.10;59.08;;;;;;;;;;5031893;28;20095;-87
2021/01/26 09:50:06;;;;;;;181.23;57.65;;;;;;;;;;5031936;28;20128;-86
2021/01/26 09:52:33;;;;;;;189.68;59.10;;;;;;;;;;5031782;28;20046;-87
2021/01/26 09:55:07;;;;;;;183.70;59.33;;;;;;;;;;5031687;28;20046;-87
2021/01/26 09:57:35;;;;;;;160.32;52.30;;;;;;;;;;5031702;28;20048;-87
2021/01/26 10:00:07;;;;;;;159.00;51.45;;;;;;;;;;5031669;28;20092;-86
2021/01/26 10:02:38;;;;;;;164.27;51.92;;;;;;;;;;5026867;28;20077;-86
2021/01/26 10:05:08;;;;;;;160.60;52.63;;;;;;;;;;5042218;28;20056;-86
2021/01/26 10:07:38;;;;;;;154.70;52.40;;;;;;;;;;5034579;28;20136;-86
2021/01/26 10:10:33;;;;;;;165.13;54.90;;;;;;;;;;5034309;28;20478;-85
2021/01/26 10:13:20;;;;;;;176.57;56.70;;;;;;;;;;5026869;28;20045;-86
2021/01/26 10:15:46;;;;;;;167.00;55.55;;;;;;;;;;5027850;28;20342;-86
2021/01/26 10:18:25;;;;;;;166.50;55.10;;;;;;;;;;5036086;28;20132;-86
2021/01/26 10:20:57;;;;;;;176.50;56.15;;;;;;;;;;5031859;28;20049;-87
2021/01/26 10:23:37;;;;;;;172.98;57.60;;;;;;;;;;5035580;28;20049;-87
2021/01/26 10:26:09;;;;;;;165.27;56.25;;;;;;;;;;5036726;28;20529;-87
2021/01/26 10:28:36;;;;;;;177.13;60.20;;;;;;;;;;5034714;28;20072;-86
2021/01/26 10:31:22;;;;;;;181.05;60.95;;;;;;;;;;5034599;28;20124;-88
2021/01/26 10:33:57;;;;;;;239.73;78.55;;;;;;;;;;5027022;28;20541;-87
2021/01/26 10:36:26;;;;;;;216.23;74.15;;;;;;;;;;5034574;28;20099;-86
2021/01/26 10:38:57;;;;;;;179.25;63.72;;;;;;;;;;5041457;28;20041;-86
2021/01/26 10:41:33;;;;;;;180.63;61.47;;;;;;;;;;5035461;28;20103;-86
2021/01/26 10:44:08;;;;;;;174.10;61.13;;;;;;;;;;5034073;28;20104;-86
2021/01/26 10:46:41;;;;;;;172.73;58.15;;;;;;;;;;5033810;28;20058;-86
2021/01/26 10:49:17;;;;;;;150.07;55.50;;;;;;;;;;5034042;28;20513;-87
2021/01/26 10:52:03;;;;;;;165.82;54.10;;;;;;;;;;5033828;28;20494;-86
2021/01/26 10:54:31;;;;;;;157.73;54.55;;;;;;;;;;5034631;28;20072;-88
2021/01/26 10:57:04;;;;;;;164.00;53.50;;;;;;;;;;5039197;28;20052;-88
2021/01/26 10:59:30;;;;;;;176.73;56.38;;;;;;;;;;5040410;28;20884;-87
2021/01/26 11:01:57;;;;;;;171.65;56.53;;;;;;;;;;5038993;28;20129;-87
2021/01/26 11:04:25;;;;;;;180.75;55.00;;;;;;;;;;5037557;28;20058;-88
2021/01/26 11:06:52;;;;;;;166.77;54.13;;;;;;;;;;5038039;28;20045;-87
2021/01/26 11:09:18;;;;;;;163.60;54.22;;;;;;;;;;5035313;28;20049;-86
2021/01/26 11:11:46;;;;;;;160.00;54.92;;;;;;;;;;5034868;28;20203;-87
2021/01/26 11:14:13;;;;;;;155.25;52.53;;;;;;;;;;5035219;28;20053;-86
2021/01/26 11:16:40;;;;;;;174.55;57.70;;;;;;;;;;5037475;28;20061;-88
2021/01/26 11:19:21;;;;;;;155.52;50.65;;;;;;;;;;5041469;28;20124;-88
2021/01/26 11:21:48;;;;;;;138.20;49.92;;;;;;;;;;5017759;28;20084;-89
2021/01/26 11:24:15;;;;;;;151.95;50.70;;;;;;;;;;5037352;28;20053;-90
2021/01/26 11:26:43;;;;;;;161.82;54.17;;;;;;;;;;5045844;28;20063;-88
2021/01/26 11:29:12;;;;;;;143.90;49.33;;;;;;;;;;5034552;28;20056;-90
2021/01/26 11:31:41;;;;;;;149.20;48.50;;;;;;;;;;5033675;28;20060;-89
2021/01/26 11:34:22;;;;;;;140.52;47.00;;;;;;;;;;5034301;28;20099;-91
2021/01/26 11:36:50;;;;;;;131.20;46.63;;;;;;;;;;5036661;28;20044;-89
2021/01/26 11:39:19;;;;;;;142.45;48.40;;;;;;;;;;5034428;28;20052;-91
2021/01/26 11:41:47;;;;;;;136.55;46.08;;;;;;;;;;5034541;28;20049;-90
2021/01/26 11:44:16;;;;;;;137.88;46.92;;;;;;;;;;5033857;28;20053;-90
2021/01/26 11:46:44;;;;;;;133.52;44.47;;;;;;;;;;5033766;28;20494;-90
2021/01/26 11:49:20;;;;;;;136.43;45.70;;;;;;;;;;5034547;28;20401;-91
2021/01/26 11:51:49;;;;;;;134.75;44.88;;;;;;;;;;4998748;28;20049;-91
2021/01/26 11:54:19;;;;;;;130.70;45.42;;;;;;;;;;5011690;28;20050;-90
2021/01/26 11:56:49;;;;;;;144.50;45.42;;;;;;;;;;5033617;28;20045;-90
2021/01/26 11:59:20;;;;;;;134.32;44.35;;;;;;;;;;5034074;28;20073;-90
2021/01/26 12:01:46;;;;;;;133.77;45.13;;;;;;;;;;5027094;28;20049;-89
2021/01/26 12:04:15;;;;;;;131.48;43.42;;;;;;;;;;5034767;28;20053;-89
2021/01/26 12:06:42;;;;;;;123.80;42.67;;;;;;;;;;5033607;28;20136;-89
2021/01/26 12:09:09;;;;;;;107.47;38.15;;;;;;;;;;5033359;28;20564;-88
2021/01/26 12:11:36;;;;;;;123.60;42.72;;;;;;;;;;5033039;28;20049;-88
2021/01/26 12:14:04;;;;;;;122.07;40.28;;;;;;;;;;5033293;28;20041;-89
2021/01/26 12:16:33;;;;;;;124.43;40.67;;;;;;;;;;5033082;28;20054;-88
2021/01/26 12:19:01;;;;;;;129.07;40.80;;;;;;;;;;5033583;28;20380;-89
2021/01/26 12:21:27;;;;;;;108.72;35.60;;;;;;;;;;5033144;28;20049;-89
2021/01/26 12:24:00;;;;;;;124.05;40.38;;;;;;;;;;5031312;28;20069;-88
2021/01/26 12:26:26;;;;;;;121.32;40.10;;;;;;;;;;5030237;28;20045;-89
2021/01/26 12:28:53;;;;;;;117.15;40.38;;;;;;;;;;5032829;28;20650;-89
2021/01/26 12:31:20;;;;;;;114.35;39.40;;;;;;;;;;5035678;28;20041;-89
2021/01/26 12:33:47;;;;;;;123.10;39.63;;;;;;;;;;5040824;28;20041;-90
2021/01/26 12:36:14;;;;;;;116.32;38.05;;;;;;;;;;5032323;28;20049;-90
2021/01/26 12:38:40;;;;;;;114.53;38.33;;;;;;;;;;5032166;28;20045;-89
2021/01/26 12:41:07;;;;;;;118.22;37.40;;;;;;;;;;5034093;28;20103;-88
2021/01/26 12:43:34;;;;;;;110.07;36.53;;;;;;;;;;5030264;28;20732;-89
2021/01/26 12:46:00;;;;;;;102.28;35.70;;;;;;;;;;5032861;28;20049;-90
2021/01/26 12:48:49;;;;;;;101.20;35.25;;;;;;;;;;5032551;28;20387;-88
2021/01/26 12:51:16;;;;;;;99.47;34.00;;;;;;;;;;5034110;28;20059;-89
2021/01/26 12:53:43;;;;;;;104.18;36.03;;;;;;;;;;5020566;28;20049;-89
2021/01/26 12:56:09;;;;;;;105.57;33.97;;;;;;;;;;5029248;28;20045;-89
2021/01/26 12:58:36;;;;;;;106.43;35.05;;;;;;;;;;5034049;28;20045;-89
2021/01/26 13:01:10;;;;;;;102.18;35.30;;;;;;;;;;5032575;28;20053;-89
2021/01/26 13:03:37;;;;;;;111.78;35.22;;;;;;;;;;5033509;28;20080;-88
2021/01/26 13:06:04;;;;;;;106.90;34.13;;;;;;;;;;5032527;28;20049;-88
2021/01/26 13:08:31;;;;;;;112.63;35.67;;;;;;;;;;5032678;28;20060;-89
2021/01/26 13:11:15;;;;;;;101.53;35.00;;;;;;;;;;5032243;28;20087;-90
2021/01/26 13:13:44;;;;;;;98.22;32.53;;;;;;;;;;5032322;28;20795;-88
2021/01/26 13:16:11;;;;;;;103.03;32.78;;;;;;;;;;5031590;28;20127;-89
2021/01/26 13:18:38;;;;;;;102.20;33.78;;;;;;;;;;5031539;28;20046;-89
2021/01/26 13:21:05;;;;;;;117.45;36.58;;;;;;;;;;5032252;28;20049;-90
2021/01/26 13:23:33;;;;;;;106.97;32.45;;;;;;;;;;5033221;28;20092;-89
2021/01/26 13:26:00;;;;;;;100.32;32.70;;;;;;;;;;5032688;28;20061;-89
2021/01/26 13:28:26;;;;;;;94.90;29.85;;;;;;;;;;5032522;28;20126;-90
2021/01/26 13:30:53;;;;;;;91.57;27.83;;;;;;;;;;5032592;28;20678;-90
2021/01/26 13:33:25;;;;;;;76.97;26.33;;;;;;;;;;5033871;28;20080;-90
2021/01/26 13:35:53;;;;;;;91.00;30.27;;;;;;;;;;5033062;28;20099;-90
2021/01/26 13:38:19;;;;;;;96.35;29.48;;;;;;;;;;5030948;28;20073;-88
2021/01/26 13:40:46;;;;;;;84.38;29.60;;;;;;;;;;5024035;28;20104;-89
2021/01/26 13:43:13;;;;;;;90.88;29.13;;;;;;;;;;5033723;28;20100;-90
2021/01/26 13:45:41;;;;;;;78.55;28.25;;;;;;;;;;5033476;28;20053;-90
2021/01/26 13:48:08;;;;;;;84.35;28.90;;;;;;;;;;5034141;28;20936;-91
2021/01/26 13:50:36;;;;;;;91.05;30.42;;;;;;;;;;5035030;28;20115;-91
2021/01/26 13:53:03;;;;;;;86.30;28.95;;;;;;;;;;5034978;28;20049;-90
2021/01/26 13:55:31;;;;;;;90.13;30.83;;;;;;;;;;5034624;28;20437;-91
2021/01/26 13:57:59;;;;;;;82.53;27.95;;;;;;;;;;5034356;28;20072;-91
2021/01/26 14:00:29;;;;;;;85.53;28.33;;;;;;;;;;5034356;28;20045;-90
2021/01/26 14:03:01;;;;;;;82.63;28.48;;;;;;;;;;5032882;28;20041;-90
2021/01/26 14:05:29;;;;;;;75.97;28.70;;;;;;;;;;5033906;28;20099;-89
2021/01/26 14:07:58;;;;;;;71.70;26.88;;;;;;;;;;5032542;28;20103;-91
2021/01/26 14:10:25;;;;;;;84.22;28.77;;;;;;;;;;5013309;28;20103;-89
2021/01/26 14:12:51;;;;;;;72.78;26.52;;;;;;;;;;5024883;28;20053;-89
2021/01/26 14:15:26;;;;;;;85.80;27.10;;;;;;;;;;5032803;28;20103;-90
2021/01/26 14:17:53;;;;;;;;;;;;;;;;;;5029447;28;20157;-91
2021/01/26 14:20:23;;;;;;;73.45;25.13;;;;;;;;;;5036199;28;19927;-90
2021/01/26 14:22:50;;;;;;;96.18;26.92;;;;;;;;;;5032256;28;20052;-91
2021/01/26 14:25:17;;;;;;;81.75;26.58;;;;;;;;;;5036077;28;20053;-92
2021/01/26 14:28:10;;;;;;;70.05;24.38;;;;;;;;;;5036581;28;20783;-92
2021/01/26 14:30:37;;;;;;;66.95;24.15;;;;;;;;;;5036744;28;20045;-92
2021/01/26 14:33:04;;;;;;;71.72;26.05;;;;;;;;;;5036012;28;20053;-93
2021/01/26 14:35:34;;;;;;;80.80;27.40;;;;;;;;;;5036191;28;20052;-92
2021/01/26 14:38:02;;;;;;;76.97;27.08;;;;;;;;;;5036227;28;20041;-92
2021/01/26 14:40:29;;;;;;;71.82;24.92;;;;;;;;;;5036291;28;20041;-91
2021/01/26 14:42:56;;;;;;;80.70;24.02;;;;;;;;;;5037809;28;20105;-92
2021/01/26 14:45:24;;;;;;;71.10;24.48;;;;;;;;;;5035033;28;20528;-92
2021/01/26 14:47:51;;;;;;;76.93;28.73;;;;;;;;;;5035578;28;20045;-92
2021/01/26 14:50:20;;;;;;;67.00;26.13;;;;;;;;;;5036410;28;20049;-93
2021/01/26 14:52:56;;;;;;;65.70;22.65;;;;;;;;;;5035631;28;20505;-92
2021/01/26 14:55:24;;;;;;;60.58;22.55;;;;;;;;;;5036249;28;20057;-91
2021/01/26 14:57:52;;;;;;;62.03;22.17;;;;;;;;;;5036502;28;20126;-93
2021/01/26 15:00:20;;;;;;;75.85;23.45;;;;;;;;;;5036566;28;20049;-92
2021/01/26 15:02:47;;;;;;;71.75;23.80;;;;;;;;;;5035326;28;20061;-92
2021/01/26 15:05:15;;;;;;;69.80;21.25;;;;;;;;;;5035764;28;20129;-92
2021/01/26 15:08:05;;;;;;;60.33;20.33;;;;;;;;;;5036101;28;20445;-92
2021/01/26 15:10:32;;;;;;;68.60;22.40;;;;;;;;;;5033459;28;20049;-91
2021/01/26 15:12:58;;;;;;;64.32;21.83;;;;;;;;;;5034838;28;20045;-90
2021/01/26 15:15:28;;;;;;;68.88;22.45;;;;;;;;;;5040763;28;20084;-91
2021/01/26 15:17:55;;;;;;;70.30;22.08;;;;;;;;;;5040108;28;20050;-92